Skip Navigation Links Skip Navigation Links

Current Weather

Illinois Valley Rgnl-Walter A Duncan Field, Peru, Ill.

For information only: do not use for flight planning or navigation.
Latest weather
Observation time Friday, February 28, 2020 5:15 AM CST
Local time Friday, February 28, 2020 5:41 AM CST
Flight conditions Visual Meteorological Conditions
Winds
Wind direction West-Northwest (290°)
Wind speed 5 mph
Visibility 10 mi.
Sky condition
Ceiling 6,500 ft. broken clouds
Cloud layer broken clouds 6,500 ft.
Cloud layer broken clouds 8,000 ft.
Cloud layer overcast 11,000 ft.
Temperature 22°F
Dewpoint 16°F
Altimeter 30.05 in.Hg
Derived measurements
Relative humidity 76%
Wind chill 16°F
Density altitude -1968 ft.
Remarks
Fully automated report.
Automated weather observing station with precipitation discriminator.
METAR KVYS 281115Z AUTO 29004KT 10SM BKN065 BKN080 OVC110 M05/M09 A3005 RMK AO2 T10541090

Settings

Location code

InnerDrive.Weather 4.0.6770.0 Release CLR 4.0.30319.42000
Copyright ©2018 Inner Drive Technology. All rights reserved. Portions Copyright ©1986-2018 David Braverman.

Find weather

Site navigation


Skip Navigation Links

Place info

Page info

PayPal - The safer, easier way to pay online!

Return home.

Copyright ©2020 Inner Drive Technology. Purveyors of fine, hand-crafted computer software. Page printed 2020-02-28T11:41:20 UTC.